Time;durP1;ratioP1;P1;durP2;ratioP2;P2;SDS_P1;SDS_P2;PMS_P1;PMS_P2;Temp;Humidity;BMP_temperature;BMP_pressure;BME280_temperature;BME280_humidity;BME280_pressure;Samples;Min_cycle;Max_cycle;Signal;HPM_P1;HPM_P2
2021/03/15 00:02:02;;;;;;;132.75;125.97;;;3.00;99.90;;;;;;5026473;28;20025;-70
2021/03/15 00:04:28;;;;;;;116.65;110.47;;;3.00;99.90;;;;;;5020277;28;20033;-70
2021/03/15 00:06:54;;;;;;;127.90;121.30;;;3.00;99.90;;;;;;5020726;28;20480;-71
2021/03/15 00:09:19;;;;;;;119.03;112.57;;;3.10;99.90;;;;;;5026778;28;20038;-71
2021/03/15 00:11:45;;;;;;;97.45;92.28;;;3.10;99.90;;;;;;5000970;28;20026;-71
2021/03/15 00:14:10;;;;;;;96.10;90.97;;;3.10;99.90;;;;;;5026300;28;20033;-71
2021/03/15 00:16:36;;;;;;;109.20;103.30;;;3.00;99.90;;;;;;5026147;28;20022;-72
2021/03/15 00:19:01;;;;;;;104.95;99.18;;;2.90;99.90;;;;;;5019800;28;20416;-71
2021/03/15 00:21:27;;;;;;;109.70;103.90;;;2.90;99.90;;;;;;5020849;28;20026;-70
2021/03/15 00:23:52;;;;;;;113.25;107.05;;;2.90;99.90;;;;;;5026703;28;20077;-70
2021/03/15 00:26:18;;;;;;;111.82;105.75;;;3.00;99.90;;;;;;5013427;28;20534;-70
2021/03/15 00:28:43;;;;;;;106.53;100.80;;;2.90;99.90;;;;;;5000063;28;20025;-70
2021/03/15 00:31:09;;;;;;;104.72;98.75;;;2.90;99.90;;;;;;5025376;28;20029;-71
2021/03/15 00:33:34;;;;;;;148.88;141.15;;;2.80;99.90;;;;;;5025967;28;20026;-70
2021/03/15 00:36:00;;;;;;;130.82;123.78;;;2.80;99.90;;;;;;5024600;28;20017;-70
2021/03/15 00:38:25;;;;;;;124.57;117.82;;;2.80;99.90;;;;;;5014087;28;20097;-70
2021/03/15 00:40:51;;;;;;;114.05;107.95;;;2.70;99.90;;;;;;5012978;28;20057;-70
2021/03/15 00:43:16;;;;;;;111.40;105.28;;;2.70;99.90;;;;;;5012982;28;20087;-70
2021/03/15 00:45:42;;;;;;;122.75;116.10;;;2.80;99.90;;;;;;5023661;28;20099;-70
2021/03/15 00:48:08;;;;;;;116.45;109.82;;;2.80;99.90;;;;;;5027401;28;20036;-70
2021/03/15 00:50:40;;;;;;;101.03;95.22;;;2.70;99.90;;;;;;5012804;28;20252;-70
2021/03/15 00:53:06;;;;;;;115.97;109.72;;;2.80;99.90;;;;;;5026039;28;20026;-70
2021/03/15 00:55:32;;;;;;;110.10;104.10;;;2.80;99.90;;;;;;4998964;28;20032;-71
2021/03/15 00:57:58;;;;;;;114.80;108.35;;;2.70;99.90;;;;;;5006175;28;20428;-70
2021/03/15 01:00:30;;;;;;;123.57;116.95;;;2.60;99.90;;;;;;5018536;28;20037;-71
2021/03/15 01:02:56;;;;;;;113.45;107.03;;;2.60;99.90;;;;;;5006780;28;20047;-71
2021/03/15 01:05:35;;;;;;;116.65;110.30;;;2.70;99.90;;;;;;5030983;28;20433;-71
2021/03/15 01:08:02;;;;;;;121.55;114.90;;;2.60;99.90;;;;;;5023793;28;20037;-70
2021/03/15 01:10:28;;;;;;;125.85;118.85;;;2.60;99.90;;;;;;5025594;28;20163;-71
2021/03/15 01:12:54;;;;;;;110.13;103.97;;;2.70;99.90;;;;;;5020972;28;20026;-70
2021/03/15 01:15:21;;;;;;;111.40;105.38;;;2.70;99.90;;;;;;5015354;28;20040;-71
2021/03/15 01:17:47;;;;;;;105.07;99.22;;;2.70;99.90;;;;;;5009895;28;20038;-71
2021/03/15 01:20:13;;;;;;;122.47;115.68;;;2.70;99.90;;;;;;5019008;28;20053;-71
2021/03/15 01:22:39;;;;;;;117.22;110.78;;;2.70;99.90;;;;;;5023266;28;20037;-71
2021/03/15 01:25:06;;;;;;;123.50;117.00;;;2.70;99.90;;;;;;5023817;28;20013;-70
2021/03/15 01:27:31;;;;;;;111.75;105.63;;;2.70;99.90;;;;;;5021682;28;20656;-70
2021/03/15 01:29:57;;;;;;;109.30;103.28;;;2.60;99.90;;;;;;5018858;28;20027;-71
2021/03/15 01:32:23;;;;;;;114.07;107.60;;;2.50;99.90;;;;;;5031821;28;20032;-70
2021/03/15 01:34:49;;;;;;;136.32;128.77;;;2.60;99.90;;;;;;5018796;28;20056;-71
2021/03/15 01:37:14;;;;;;;142.82;135.25;;;2.50;99.90;;;;;;5022455;28;20372;-71
2021/03/15 01:39:40;;;;;;;111.60;105.68;;;2.50;99.90;;;;;;4999355;28;20076;-70
2021/03/15 01:42:07;;;;;;;120.50;113.68;;;2.50;99.90;;;;;;5021319;28;20092;-70
2021/03/15 01:44:33;;;;;;;122.93;116.35;;;2.50;99.90;;;;;;5028951;28;20034;-70
2021/03/15 01:46:58;;;;;;;119.38;112.78;;;2.60;99.90;;;;;;5010724;28;20028;-71
2021/03/15 01:49:24;;;;;;;130.93;123.68;;;2.60;99.90;;;;;;5011845;28;20029;-71
2021/03/15 01:51:50;;;;;;;119.05;112.50;;;2.60;99.90;;;;;;5002711;28;20520;-71
2021/03/15 01:54:18;;;;;;;112.85;106.55;;;2.50;99.90;;;;;;5011042;28;20049;-71
2021/03/15 01:56:44;;;;;;;132.63;125.40;;;2.50;99.90;;;;;;5021920;28;20033;-71
2021/03/15 01:59:11;;;;;;;112.72;106.68;;;2.60;99.90;;;;;;5001970;28;20033;-71
2021/03/15 02:01:36;;;;;;;111.95;106.00;;;2.60;99.90;;;;;;5020169;28;20476;-71
2021/03/15 02:04:02;;;;;;;125.47;118.68;;;2.70;99.90;;;;;;5024004;28;20022;-72
2021/03/15 02:06:27;;;;;;;113.90;107.78;;;2.80;99.90;;;;;;5021900;28;20030;-71
2021/03/15 02:08:53;;;;;;;102.28;96.72;;;2.80;99.90;;;;;;5014907;28;20048;-72
2021/03/15 02:11:31;;;;;;;106.43;100.47;;;2.80;99.90;;;;;;5001827;28;20096;-71
2021/03/15 02:14:20;;;;;;;104.57;98.95;;;2.80;99.90;;;;;;5027145;28;20033;-70
2021/03/15 02:17:09;;;;;;;106.95;101.28;;;2.80;99.90;;;;;;5031626;28;20138;-70
2021/03/15 02:19:57;;;;;;;113.38;107.18;;;2.80;99.90;;;;;;5031375;28;20037;-71
2021/03/15 02:22:37;;;;;;;117.10;110.93;;;2.90;99.90;;;;;;5031216;28;20057;-71
2021/03/15 02:25:24;;;;;;;108.00;102.25;;;2.90;99.90;;;;;;5015878;28;20386;-71
2021/03/15 02:28:15;;;;;;;129.85;123.10;;;2.80;99.90;;;;;;5011767;28;20050;-71
2021/03/15 02:31:01;;;;;;;109.07;103.25;;;2.80;99.90;;;;;;5009318;28;20037;-72
2021/03/15 02:33:36;;;;;;;118.03;111.78;;;2.80;99.90;;;;;;5022298;28;20216;-71
2021/03/15 02:36:04;;;;;;;119.93;113.78;;;2.80;99.90;;;;;;5011674;28;20544;-72
2021/03/15 02:38:39;;;;;;;125.15;118.75;;;2.80;99.90;;;;;;5017564;28;20521;-70
2021/03/15 02:41:07;;;;;;;119.22;113.22;;;2.90;99.90;;;;;;5017002;28;20450;-71
2021/03/15 02:43:57;;;;;;;114.43;108.43;;;2.80;99.90;;;;;;5022387;28;20121;-72
2021/03/15 02:46:25;;;;;;;124.75;118.45;;;2.80;99.90;;;;;;5029052;28;20035;-71
2021/03/15 02:48:54;;;;;;;123.15;116.28;;;2.90;99.90;;;;;;5020241;28;20439;-71
2021/03/15 02:51:24;;;;;;;114.47;108.35;;;2.80;99.90;;;;;;5024485;28;20030;-72
2021/03/15 02:53:52;;;;;;;113.40;107.28;;;2.80;99.90;;;;;;5023573;28;20057;-70
2021/03/15 02:56:23;;;;;;;120.07;113.88;;;2.80;99.90;;;;;;5016656;28;20076;-70
2021/03/15 02:58:53;;;;;;;118.75;112.45;;;2.80;99.90;;;;;;5017361;28;20383;-71
2021/03/15 03:01:21;;;;;;;112.13;106.10;;;2.80;99.90;;;;;;5008203;28;20475;-71
2021/03/15 03:03:49;;;;;;;121.07;114.75;;;2.90;99.90;;;;;;5021237;28;20464;-71
2021/03/15 03:06:18;;;;;;;113.20;107.53;;;2.90;99.90;;;;;;5006432;28;20480;-71
2021/03/15 03:08:45;;;;;;;115.78;109.70;;;2.80;99.90;;;;;;5009173;28;20403;-71
2021/03/15 03:11:13;;;;;;;131.38;124.60;;;2.80;99.90;;;;;;5022585;28;20056;-72
2021/03/15 03:13:41;;;;;;;100.07;94.82;;;2.90;99.90;;;;;;5020933;28;20120;-71
2021/03/15 03:16:07;;;;;;;114.75;108.85;;;2.90;99.90;;;;;;5026206;28;20365;-71
2021/03/15 03:18:34;;;;;;;84.35;79.85;;;2.90;99.90;;;;;;5029641;28;20032;-72
2021/03/15 03:21:01;;;;;;;123.13;116.78;;;2.90;99.90;;;;;;5025907;28;20033;-71
2021/03/15 03:23:31;;;;;;;100.65;95.05;;;2.90;99.90;;;;;;5029621;28;20021;-71
2021/03/15 03:25:58;;;;;;;118.75;112.60;;;3.00;99.90;;;;;;5034443;28;20017;-71
2021/03/15 03:28:25;;;;;;;118.57;112.28;;;3.00;99.90;;;;;;5020860;28;20053;-71
2021/03/15 03:30:51;;;;;;;105.72;100.07;;;3.00;99.90;;;;;;5024115;28;20032;-71
2021/03/15 03:33:17;;;;;;;113.90;107.80;;;2.90;99.90;;;;;;5017589;28;20029;-71
2021/03/15 03:35:43;;;;;;;111.97;105.82;;;2.90;99.90;;;;;;5024389;28;20040;-70
2021/03/15 03:38:10;;;;;;;89.95;85.13;;;2.90;99.90;;;;;;5027577;28;20025;-70
2021/03/15 03:40:35;;;;;;;119.63;113.05;;;2.90;99.90;;;;;;5023949;28;20574;-72
2021/03/15 03:43:01;;;;;;;96.93;91.57;;;2.90;99.90;;;;;;5020432;28;20108;-70
2021/03/15 03:45:27;;;;;;;134.75;127.70;;;2.80;99.90;;;;;;5024061;28;20549;-70
2021/03/15 03:47:52;;;;;;;129.57;122.55;;;2.80;99.90;;;;;;5027413;28;20393;-69
2021/03/15 03:50:24;;;;;;;129.05;121.97;;;2.90;99.90;;;;;;5023763;28;20018;-69
2021/03/15 03:53:15;;;;;;;138.95;131.55;;;2.90;99.90;;;;;;5020294;28;20029;-69
2021/03/15 03:55:49;;;;;;;125.93;119.05;;;2.90;99.90;;;;;;5009111;28;20038;-70
2021/03/15 03:58:18;;;;;;;121.90;115.40;;;2.90;99.90;;;;;;5002423;28;20573;-70
2021/03/15 04:00:46;;;;;;;160.30;151.88;;;2.80;99.90;;;;;;5026767;28;20037;-73
2021/03/15 04:03:17;;;;;;;142.57;135.00;;;2.90;99.90;;;;;;5005086;28;20022;-69
2021/03/15 04:05:48;;;;;;;126.25;119.43;;;2.90;99.90;;;;;;5011586;28;20395;-69
2021/03/15 04:08:21;;;;;;;120.75;114.15;;;3.00;99.90;;;;;;5023554;28;20030;-71
2021/03/15 04:10:48;;;;;;;109.70;103.82;;;2.90;99.90;;;;;;5025899;28;20030;-70
2021/03/15 04:13:18;;;;;;;124.32;117.70;;;3.00;99.90;;;;;;5024636;28;20026;-69
2021/03/15 04:15:46;;;;;;;128.20;121.43;;;3.20;99.90;;;;;;5018921;28;20029;-70
2021/03/15 04:18:14;;;;;;;117.50;111.28;;;2.90;99.90;;;;;;5021394;28;20037;-70
2021/03/15 04:20:42;;;;;;;114.13;108.03;;;3.00;99.90;;;;;;5026568;28;20040;-69
2021/03/15 04:23:12;;;;;;;135.43;128.15;;;3.10;99.90;;;;;;5025744;28;20025;-69
2021/03/15 04:25:40;;;;;;;119.47;113.13;;;3.10;99.90;;;;;;5013525;28;20026;-70
2021/03/15 04:28:07;;;;;;;138.52;131.05;;;3.00;99.90;;;;;;5026866;28;20495;-71
2021/03/15 04:30:33;;;;;;;133.73;126.55;;;3.00;99.90;;;;;;5019436;28;20026;-70
2021/03/15 04:33:00;;;;;;;111.32;105.13;;;3.10;99.90;;;;;;5018187;28;20053;-72
2021/03/15 04:35:31;;;;;;;123.47;116.55;;;3.10;99.90;;;;;;5025277;28;20026;-70
2021/03/15 04:38:00;;;;;;;116.45;110.00;;;3.10;99.90;;;;;;5025269;28;20029;-70
2021/03/15 04:40:28;;;;;;;106.85;100.72;;;3.20;99.90;;;;;;5020433;28;20483;-71
2021/03/15 04:43:01;;;;;;;110.85;104.40;;;3.10;99.90;;;;;;5019408;28;20088;-70
2021/03/15 04:45:34;;;;;;;125.72;119.07;;;3.30;99.90;;;;;;5022438;28;20035;-71
2021/03/15 04:48:06;;;;;;;104.03;98.32;;;3.10;99.90;;;;;;5026326;28;20022;-70
2021/03/15 04:50:33;;;;;;;122.88;116.18;;;3.10;99.90;;;;;;5024958;28;20096;-70
2021/03/15 04:53:00;;;;;;;108.68;102.30;;;3.00;99.90;;;;;;5019314;28;20030;-70
2021/03/15 04:55:26;;;;;;;128.23;120.45;;;3.10;99.90;;;;;;5020424;28;20029;-70
2021/03/15 04:57:55;;;;;;;97.88;92.13;;;3.10;99.90;;;;;;5026019;28;20042;-71
2021/03/15 05:00:22;;;;;;;102.82;97.00;;;3.10;99.90;;;;;;5024282;28;20022;-70
2021/03/15 05:02:49;;;;;;;100.20;94.30;;;3.00;99.90;;;;;;5017989;28;20036;-71
2021/03/15 05:05:15;;;;;;;113.40;107.18;;;2.90;99.90;;;;;;5019802;28;20114;-71
2021/03/15 05:07:42;;;;;;;124.78;117.88;;;2.90;99.90;;;;;;5032076;28;20021;-70
2021/03/15 05:10:10;;;;;;;126.32;119.32;;;2.90;99.90;;;;;;5019331;28;20034;-71
2021/03/15 05:12:37;;;;;;;131.32;123.95;;;3.00;99.90;;;;;;5025578;28;20017;-71
2021/03/15 05:15:06;;;;;;;127.95;120.38;;;2.80;99.90;;;;;;4999291;28;20396;-71
2021/03/15 05:17:36;;;;;;;128.23;121.03;;;2.90;99.90;;;;;;5019732;28;20364;-72
2021/03/15 05:20:05;;;;;;;119.78;112.80;;;2.90;99.90;;;;;;5017481;28;20494;-71
2021/03/15 05:22:32;;;;;;;123.15;115.90;;;3.30;99.90;;;;;;5023681;28;20038;-73
2021/03/15 05:25:00;;;;;;;102.05;95.53;;;2.90;99.90;;;;;;5025522;28;20030;-71
2021/03/15 05:27:27;;;;;;;99.25;93.00;;;2.90;99.90;;;;;;5020951;28;20032;-72
2021/03/15 05:29:54;;;;;;;135.27;127.57;;;3.10;99.90;;;;;;5018570;28;20542;-71
2021/03/15 05:32:22;;;;;;;125.53;118.22;;;2.90;99.90;;;;;;5023559;28;20034;-70
2021/03/15 05:34:49;;;;;;;124.18;116.32;;;2.90;99.90;;;;;;5025375;28;20694;-71
2021/03/15 05:37:15;;;;;;;104.50;98.05;;;2.90;99.90;;;;;;5012302;28;20037;-71
2021/03/15 05:39:41;;;;;;;120.55;113.63;;;3.00;99.90;;;;;;5026083;28;20059;-71
2021/03/15 05:42:21;;;;;;;128.07;120.90;;;3.00;99.90;;;;;;5020917;28;20487;-71
2021/03/15 05:45:10;;;;;;;133.15;125.63;;;3.10;99.90;;;;;;5018680;28;20028;-71
2021/03/15 05:48:16;;;;;;;118.07;111.47;;;3.00;99.90;;;;;;5017284;28;20018;-72
2021/03/15 05:51:20;;;;;;;112.43;105.65;;;3.00;99.90;;;;;;5017626;28;20084;-70
2021/03/15 05:54:23;;;;;;;133.00;122.72;;;3.00;99.90;;;;;;5014847;28;20024;-71
2021/03/15 05:57:26;;;;;;;187.93;172.77;;;3.00;99.90;;;;;;5010465;28;20109;-72
2021/03/15 06:00:09;;;;;;;201.80;185.88;;;3.00;99.90;;;;;;5008073;28;20040;-71
2021/03/15 06:03:01;;;;;;;216.93;198.30;;;3.10;99.90;;;;;;5010943;28;20038;-72
2021/03/15 06:05:28;;;;;;;153.68;143.57;;;3.00;99.90;;;;;;5019721;28;20048;-72
2021/03/15 06:08:10;;;;;;;95.75;89.63;;;3.00;99.90;;;;;;5031746;28;20029;-71
2021/03/15 06:10:36;;;;;;;121.88;113.50;;;3.00;99.90;;;;;;5011984;28;20045;-71
2021/03/15 06:13:13;;;;;;;142.30;134.00;;;3.10;99.90;;;;;;5009860;28;20026;-71
2021/03/15 06:15:41;;;;;;;125.15;117.85;;;3.20;99.90;;;;;;5010803;28;20065;-70
2021/03/15 06:18:08;;;;;;;124.35;116.75;;;3.10;99.90;;;;;;5001390;28;20033;-71
2021/03/15 06:20:37;;;;;;;145.07;136.80;;;3.10;99.90;;;;;;5015658;28;20044;-69
2021/03/15 06:23:04;;;;;;;117.75;110.43;;;3.30;99.90;;;;;;5020520;28;20061;-69
2021/03/15 06:25:31;;;;;;;138.45;130.48;;;3.20;99.90;;;;;;5011666;28;20072;-70
2021/03/15 06:27:57;;;;;;;153.60;145.27;;;3.20;99.90;;;;;;5023105;28;20017;-69
2021/03/15 06:30:27;;;;;;;109.38;102.82;;;3.20;99.90;;;;;;5018039;28;20392;-71
2021/03/15 06:32:57;;;;;;;124.38;117.25;;;3.20;99.90;;;;;;5017720;28;20022;-70
2021/03/15 06:35:29;;;;;;;135.82;128.18;;;3.30;99.90;;;;;;5009368;28;20034;-70
2021/03/15 06:37:55;;;;;;;112.25;105.80;;;3.20;99.90;;;;;;5033609;28;20026;-70
2021/03/15 06:40:22;;;;;;;102.50;96.38;;;3.30;99.90;;;;;;5023365;28;20498;-70
2021/03/15 06:42:50;;;;;;;83.18;77.82;;;3.30;99.90;;;;;;5034786;28;20017;-70
2021/03/15 06:45:19;;;;;;;79.32;74.28;;;3.20;99.90;;;;;;5034943;28;20498;-70
2021/03/15 06:47:46;;;;;;;101.88;95.75;;;3.40;99.90;;;;;;5033609;28;20037;-70
2021/03/15 06:50:14;;;;;;;90.35;84.80;;;3.40;99.90;;;;;;5025877;28;20098;-71
2021/03/15 06:53:00;;;;;;;116.32;109.55;;;3.50;99.90;;;;;;5017600;28;20018;-71
2021/03/15 06:55:28;;;;;;;132.55;125.22;;;3.70;99.90;;;;;;5022971;28;20096;-70
2021/03/15 06:57:54;;;;;;;75.55;70.88;;;3.80;99.90;;;;;;5007966;28;20125;-70
2021/03/15 07:00:22;;;;;;;103.45;97.50;;;3.80;99.90;;;;;;5007909;28;20105;-70
2021/03/15 07:03:02;;;;;;;100.97;95.28;;;3.80;99.90;;;;;;5020948;28;20037;-70
2021/03/15 07:05:29;;;;;;;57.08;53.13;;;3.90;99.90;;;;;;5019638;28;20037;-70
2021/03/15 07:07:59;;;;;;;65.53;61.22;;;4.00;99.90;;;;;;5014864;28;20030;-70
2021/03/15 07:10:30;;;;;;;47.17;43.83;;;4.00;99.90;;;;;;5001472;28;20498;-71
2021/03/15 07:13:09;;;;;;;99.07;93.20;;;4.10;99.90;;;;;;5023188;28;20146;-70
2021/03/15 07:15:35;;;;;;;62.20;58.08;;;4.10;99.90;;;;;;5016161;28;20033;-71
2021/03/15 07:18:18;;;;;;;56.85;52.88;;;4.20;99.90;;;;;;5024943;28;20032;-71
2021/03/15 07:20:48;;;;;;;27.98;25.73;;;4.20;99.90;;;;;;5027240;28;20044;-71
2021/03/15 07:23:14;;;;;;;20.35;18.25;;;4.30;99.90;;;;;;5028812;28;20096;-70
2021/03/15 07:25:41;;;;;;;18.35;16.30;;;4.30;99.90;;;;;;5026326;28;20029;-72
2021/03/15 07:28:07;;;;;;;19.88;16.95;;;4.20;99.90;;;;;;5013118;28;20022;-70
2021/03/15 07:30:36;;;;;;;18.77;16.88;;;4.20;99.90;;;;;;5014319;28;20029;-71
2021/03/15 07:33:16;;;;;;;16.05;14.40;;;4.30;99.90;;;;;;5018784;28;20034;-71
2021/03/15 07:35:41;;;;;;;26.27;23.95;;;4.20;99.90;;;;;;5013181;28;20030;-70
2021/03/15 07:38:07;;;;;;;20.73;19.08;;;4.30;99.90;;;;;;5011374;28;20036;-70
2021/03/15 07:40:54;;;;;;;13.73;12.43;;;4.30;99.90;;;;;;5004391;28;20033;-70
2021/03/15 07:43:26;;;;;;;;;;;4.10;99.90;;;;;;5017730;28;20029;-71
2021/03/15 07:45:51;;;;;;;21.58;19.83;;;4.10;99.90;;;;;;5017573;28;19905;-71
2021/03/15 07:48:18;;;;;;;23.48;21.63;;;4.10;99.90;;;;;;5011496;28;20033;-70
2021/03/15 07:50:55;;;;;;;14.48;13.07;;;4.00;99.90;;;;;;5013492;28;20022;-71
2021/03/15 07:53:46;;;;;;;16.05;14.82;;;4.00;99.90;;;;;;5021149;28;20058;-71
2021/03/15 07:56:21;;;;;;;16.25;14.65;;;4.00;99.90;;;;;;5014973;28;20037;-70
2021/03/15 07:58:48;;;;;;;11.47;10.43;;;4.10;99.90;;;;;;5016740;28;20022;-71
2021/03/15 08:01:16;;;;;;;34.17;32.20;;;4.00;99.90;;;;;;5015008;28;20292;-71
2021/03/15 08:03:42;;;;;;;11.57;10.52;;;3.90;99.90;;;;;;5018038;28;20022;-71
2021/03/15 08:06:09;;;;;;;14.70;13.43;;;4.00;99.90;;;;;;5014148;28;20032;-70
2021/03/15 08:08:35;;;;;;;79.65;75.63;;;4.00;99.90;;;;;;5020204;28;20069;-70
2021/03/15 08:11:01;;;;;;;87.65;83.28;;;4.00;99.90;;;;;;5014759;28;20060;-70
2021/03/15 08:13:29;;;;;;;56.90;54.05;;;4.10;99.90;;;;;;5026601;28;20456;-70
2021/03/15 08:15:59;;;;;;;28.52;26.75;;;4.00;99.90;;;;;;5013293;28;20042;-70
2021/03/15 08:18:27;;;;;;;11.18;10.27;;;4.10;99.90;;;;;;4999957;28;20381;-70
2021/03/15 08:20:56;;;;;;;61.38;58.25;;;4.10;99.90;;;;;;5013047;28;20041;-70
2021/03/15 08:23:24;;;;;;;13.13;11.85;;;3.90;99.90;;;;;;5028358;28;20108;-70
2021/03/15 08:25:52;;;;;;;24.63;22.88;;;3.90;99.90;;;;;;5024156;28;20018;-70
2021/03/15 08:28:19;;;;;;;81.70;77.53;;;3.70;99.90;;;;;;5010759;28;20022;-70
2021/03/15 08:30:54;;;;;;;109.43;103.93;;;3.80;99.90;;;;;;5002200;28;20054;-70
2021/03/15 08:33:20;;;;;;;34.03;31.92;;;3.90;99.90;;;;;;5015906;28;20034;-70
2021/03/15 08:35:47;;;;;;;72.60;68.82;;;4.00;99.90;;;;;;5002689;28;20105;-70
2021/03/15 08:38:16;;;;;;;74.47;70.43;;;3.80;99.90;;;;;;5013366;28;20025;-70
2021/03/15 08:40:42;;;;;;;57.58;54.60;;;3.80;99.90;;;;;;5032395;28;20025;-70
2021/03/15 08:43:22;;;;;;;72.05;68.38;;;3.90;99.90;;;;;;5017729;28;20755;-70
2021/03/15 08:45:56;;;;;;;78.03;74.03;;;3.80;99.90;;;;;;5032549;28;20018;-70
2021/03/15 08:48:34;;;;;;;43.05;40.47;;;3.80;99.90;;;;;;5004835;28;20388;-70
2021/03/15 08:51:01;;;;;;;40.58;38.20;;;3.70;99.90;;;;;;5030782;28;20025;-70
2021/03/15 08:53:41;;;;;;;23.05;21.40;;;3.70;99.90;;;;;;5012541;28;20109;-69
2021/03/15 08:56:17;;;;;;;46.10;43.35;;;3.80;99.90;;;;;;5009090;28;20408;-70
2021/03/15 08:58:44;;;;;;;36.70;34.63;;;3.80;99.90;;;;;;5003679;28;20156;-70
2021/03/15 09:01:12;;;;;;;114.07;108.28;;;3.80;99.90;;;;;;5007562;28;20133;-70
2021/03/15 09:03:52;;;;;;;64.57;60.85;;;3.90;99.90;;;;;;5003963;28;20030;-70
2021/03/15 09:06:40;;;;;;;41.83;39.28;;;3.90;99.90;;;;;;5032160;28;20506;-70
2021/03/15 09:09:14;;;;;;;120.10;113.28;;;3.90;99.90;;;;;;5031900;28;20467;-70
2021/03/15 09:11:44;;;;;;;64.07;60.30;;;3.90;99.90;;;;;;5031977;28;20049;-70
2021/03/15 09:14:32;;;;;;;126.75;119.57;;;3.90;99.90;;;;;;5031850;28;20033;-70
2021/03/15 09:17:16;;;;;;;76.50;71.75;;;3.90;99.90;;;;;;5030643;28;20527;-70
2021/03/15 09:19:43;;;;;;;32.78;30.40;;;4.00;99.90;;;;;;5012126;28;20034;-70
2021/03/15 09:22:25;;;;;;;23.67;21.52;;;4.00;99.90;;;;;;5011851;28;20084;-70
2021/03/15 09:24:57;;;;;;;20.38;18.67;;;4.00;99.90;;;;;;5012090;28;20024;-70
2021/03/15 09:27:27;;;;;;;22.70;20.83;;;3.90;99.90;;;;;;5012158;28;20121;-70
2021/03/15 09:30:12;;;;;;;19.92;18.05;;;4.00;99.90;;;;;;5010673;28;20069;-70
2021/03/15 09:32:43;;;;;;;20.67;19.10;;;3.90;99.90;;;;;;5014715;28;20882;-70
2021/03/15 09:35:13;;;;;;;17.33;16.05;;;4.00;99.90;;;;;;5030677;28;20026;-69
2021/03/15 09:37:50;;;;;;;56.13;53.08;;;4.00;99.90;;;;;;5031605;28;20091;-70
2021/03/15 09:40:18;;;;;;;26.63;24.95;;;3.90;99.90;;;;;;5030333;28;20029;-70
2021/03/15 09:42:44;;;;;;;26.35;24.55;;;4.00;99.90;;;;;;5031333;28;20028;-70
2021/03/15 09:45:12;;;;;;;79.57;75.53;;;4.00;99.90;;;;;;5031561;28;20017;-70
2021/03/15 09:47:38;;;;;;;65.05;61.75;;;3.90;99.90;;;;;;5016596;28;20029;-70
2021/03/15 09:50:18;;;;;;;31.25;29.20;;;3.90;99.90;;;;;;5012001;28;20030;-70
2021/03/15 09:52:43;;;;;;;31.63;29.17;;;4.00;99.90;;;;;;5011500;28;20061;-69
2021/03/15 09:55:09;;;;;;;20.27;18.85;;;4.30;99.90;;;;;;5011865;28;20573;-70
2021/03/15 09:57:35;;;;;;;44.45;42.22;;;4.10;99.90;;;;;;5011695;28;20030;-70
2021/03/15 10:00:13;;;;;;;24.55;22.85;;;4.00;99.90;;;;;;5021842;28;20083;-70
2021/03/15 10:02:39;;;;;;;77.45;73.38;;;3.90;99.90;;;;;;5012455;28;20036;-70
2021/03/15 10:05:07;;;;;;;82.72;78.22;;;4.10;99.90;;;;;;5011617;28;20030;-70
2021/03/15 10:07:38;;;;;;;109.13;103.75;;;3.80;99.90;;;;;;5005972;28;20072;-70
2021/03/15 10:10:11;;;;;;;73.82;69.82;;;3.80;99.90;;;;;;5006708;28;20022;-71
2021/03/15 10:12:37;;;;;;;50.08;47.47;;;3.80;99.90;;;;;;5015422;28;20034;-70
2021/03/15 10:15:06;;;;;;;106.65;101.60;;;3.70;99.90;;;;;;5003105;28;20034;-70
2021/03/15 10:17:32;;;;;;;77.47;73.78;;;3.80;99.90;;;;;;5035325;28;20021;-70
2021/03/15 10:19:58;;;;;;;78.18;74.40;;;3.90;99.90;;;;;;5035226;28;20032;-70
2021/03/15 10:22:24;;;;;;;41.03;38.88;;;3.70;99.90;;;;;;5027674;28;20026;-70
2021/03/15 10:24:51;;;;;;;62.15;59.13;;;3.80;99.90;;;;;;5002984;28;20023;-70
2021/03/15 10:27:25;;;;;;;87.47;83.38;;;3.80;99.90;;;;;;5021188;28;20025;-70
2021/03/15 10:29:54;;;;;;;49.67;47.17;;;3.90;99.90;;;;;;5018980;28;20026;-70
2021/03/15 10:32:26;;;;;;;38.30;36.40;;;3.90;99.90;;;;;;5019585;28;20105;-70
2021/03/15 10:35:07;;;;;;;70.28;66.93;;;3.90;99.90;;;;;;5031368;28;20037;-70
2021/03/15 10:37:38;;;;;;;48.88;46.35;;;3.90;99.90;;;;;;5034835;28;20552;-70
2021/03/15 10:40:06;;;;;;;18.08;17.00;;;3.90;99.90;;;;;;5015863;28;20388;-70
2021/03/15 10:42:36;;;;;;;62.42;59.50;;;3.90;99.90;;;;;;5027288;28;20025;-70
2021/03/15 10:45:06;;;;;;;25.92;24.50;;;3.90;99.90;;;;;;5033584;28;20060;-71
2021/03/15 10:47:34;;;;;;;21.73;20.48;;;4.10;99.90;;;;;;5021812;28;20052;-71
2021/03/15 10:50:01;;;;;;;13.40;12.48;;;4.20;99.90;;;;;;5027769;28;20029;-71
2021/03/15 10:52:27;;;;;;;14.77;13.88;;;4.20;99.90;;;;;;5001554;28;20041;-71
2021/03/15 10:54:53;;;;;;;12.05;11.23;;;4.20;99.90;;;;;;5027909;28;20415;-71
2021/03/15 10:57:21;;;;;;;9.48;8.88;;;4.10;99.90;;;;;;5028047;28;20025;-71
2021/03/15 10:59:48;;;;;;;13.05;12.25;;;4.20;99.90;;;;;;5006020;28;20117;-71
2021/03/15 11:02:25;;;;;;;13.98;13.18;;;4.40;99.90;;;;;;5023499;28;20029;-70
2021/03/15 11:04:59;;;;;;;35.15;33.38;;;4.40;99.90;;;;;;5025599;28;20033;-70
2021/03/15 11:07:27;;;;;;;17.13;16.02;;;4.50;99.90;;;;;;5027876;28;20076;-71
2021/03/15 11:09:54;;;;;;;49.75;47.13;;;4.60;99.90;;;;;;5013388;28;20435;-70
2021/03/15 11:12:37;;;;;;;12.98;12.07;;;4.60;99.90;;;;;;5018374;28;20025;-71
2021/03/15 11:15:12;;;;;;;14.85;14.07;;;4.70;99.90;;;;;;5020436;28;20057;-70
2021/03/15 11:17:40;;;;;;;8.13;7.43;;;4.70;99.90;;;;;;5002312;28;20558;-71
2021/03/15 11:20:09;;;;;;;14.48;13.68;;;4.90;99.90;;;;;;5012514;28;20045;-70
2021/03/15 11:23:04;;;;;;;18.70;17.75;;;5.10;99.90;;;;;;5022238;28;20036;-71
2021/03/15 11:25:31;;;;;;;8.32;7.68;;;5.20;99.90;;;;;;5004862;28;20045;-71
2021/03/15 11:28:06;;;;;;;8.63;8.02;;;5.20;99.90;;;;;;5019911;28;20014;-70
2021/03/15 11:30:32;;;;;;;5.35;4.85;;;5.30;99.90;;;;;;5034027;28;20056;-71
2021/03/15 11:32:59;;;;;;;5.88;5.50;;;5.30;99.90;;;;;;5019997;28;20017;-71
2021/03/15 11:35:25;;;;;;;6.95;6.45;;;5.30;99.90;;;;;;5005368;28;20133;-70
2021/03/15 11:37:51;;;;;;;6.95;6.55;;;5.40;99.90;;;;;;5020863;28;20506;-70
2021/03/15 11:40:41;;;;;;;4.38;4.07;;;5.40;99.90;;;;;;5032502;28;20080;-71
2021/03/15 11:43:08;;;;;;;11.77;11.18;;;5.40;99.90;;;;;;5013512;28;20129;-71
2021/03/15 11:45:35;;;;;;;5.28;4.78;;;5.40;99.90;;;;;;5024906;28;20092;-71
2021/03/15 11:48:01;;;;;;;5.60;5.20;;;5.40;99.90;;;;;;5016203;28;20028;-71
2021/03/15 11:50:28;;;;;;;4.38;4.07;;;5.30;99.90;;;;;;5024724;28;20030;-71
2021/03/15 11:52:53;;;;;;;4.82;4.53;;;5.30;99.90;;;;;;5015794;28;20025;-70
2021/03/15 11:55:20;;;;;;;3.95;3.65;;;5.20;99.90;;;;;;5013829;28;20099;-70
2021/03/15 11:57:46;;;;;;;5.30;4.90;;;5.20;99.90;;;;;;4995884;28;20080;-71
2021/03/15 12:00:14;;;;;;;8.13;7.65;;;5.20;99.90;;;;;;5016720;28;20491;-71
2021/03/15 12:02:39;;;;;;;6.03;5.63;;;5.00;99.90;;;;;;5019999;28;20041;-71
2021/03/15 12:05:10;;;;;;;4.85;4.55;;;5.00;99.90;;;;;;5020700;28;20083;-70
2021/03/15 12:07:37;;;;;;;4.95;4.65;;;5.00;99.90;;;;;;5026792;28;20079;-71
2021/03/15 12:10:07;;;;;;;3.97;3.75;;;5.10;99.90;;;;;;5026477;28;20037;-71
2021/03/15 12:12:33;;;;;;;4.03;3.72;;;5.30;99.90;;;;;;5007297;28;20035;-71
2021/03/15 12:14:59;;;;;;;8.07;7.57;;;5.50;99.90;;;;;;5019301;28;20083;-71
2021/03/15 12:17:25;;;;;;;5.05;4.65;;;5.70;99.90;;;;;;5027036;28;20022;-71
2021/03/15 12:19:50;;;;;;;6.85;6.47;;;6.10;99.90;;;;;;5013307;28;20107;-71
2021/03/15 12:22:16;;;;;;;4.38;4.18;;;6.30;99.90;;;;;;5026441;28;20026;-71
2021/03/15 12:24:41;;;;;;;5.10;4.80;;;6.50;99.90;;;;;;5025927;28;20438;-71
2021/03/15 12:27:07;;;;;;;2.80;2.60;;;6.80;99.90;;;;;;5019572;28;20662;-71
2021/03/15 12:29:33;;;;;;;2.90;2.70;;;6.80;99.90;;;;;;5032842;28;20022;-71
2021/03/15 12:32:00;;;;;;;3.63;3.42;;;6.50;99.90;;;;;;5018588;28;20021;-71
2021/03/15 12:34:25;;;;;;;2.80;2.60;;;7.20;99.90;;;;;;5020468;28;20503;-71
2021/03/15 12:36:51;;;;;;;1.98;1.88;;;8.00;99.90;;;;;;5026522;28;20030;-71
2021/03/15 12:39:17;;;;;;;1.88;1.77;;;8.50;99.90;;;;;;5013102;28;20033;-71
2021/03/15 12:41:43;;;;;;;1.95;1.85;;;8.20;99.90;;;;;;5025900;28;20479;-71
2021/03/15 12:44:08;;;;;;;1.90;1.80;;;8.00;99.90;;;;;;5000602;28;20030;-71